createdAt,value
2018-07-28T00:00:07.196Z,25.99
2018-07-28T00:01:16.058Z,25.97
2018-07-28T00:02:25.195Z,25.92
2018-07-28T00:03:34.342Z,25.9
2018-07-28T00:04:43.205Z,25.82
2018-07-28T00:05:52.343Z,25.8
2018-07-28T00:07:01.488Z,26.02
2018-07-28T00:08:10.634Z,25.9
2018-07-28T00:09:19.773Z,25.82
2018-07-28T00:10:28.642Z,25.8
2018-07-28T00:11:37.511Z,25.77
2018-07-28T00:12:46.378Z,25.69
2018-07-28T00:13:55.244Z,25.76
2018-07-28T00:15:04.384Z,25.77
2018-07-28T00:16:13.814Z,25.76
2018-07-28T00:17:22.679Z,25.76
2018-07-28T00:18:31.545Z,25.82
2018-07-28T00:19:40.412Z,25.76
2018-07-28T00:20:49.705Z,25.76
2018-07-28T00:21:58.571Z,25.62
2018-07-28T00:23:07.714Z,25.64
2018-07-28T00:24:16.578Z,25.46
2018-07-28T00:25:25.444Z,25.67
2018-07-28T00:26:34.461Z,25.7
2018-07-28T00:27:43.323Z,25.6
2018-07-28T00:28:52.187Z,25.67
2018-07-28T00:30:01.052Z,25.54
2018-07-28T00:31:09.918Z,25.64
2018-07-28T00:32:19.313Z,25.57
2018-07-28T00:33:28.183Z,25.55
2018-07-28T00:34:37.334Z,25.5
2018-07-28T00:35:46.511Z,25.51
2018-07-28T00:36:55.378Z,25.4
2018-07-28T00:38:04.243Z,25.39
2018-07-28T00:39:13.110Z,25.38
2018-07-28T00:40:21.974Z,25.43
2018-07-28T00:41:30.839Z,25.4
2018-07-28T00:42:39.704Z,25.45
2018-07-28T00:43:48.669Z,25.45
2018-07-28T00:44:57.537Z,25.43
2018-07-28T00:46:06.401Z,25.39
2018-07-28T00:47:15.547Z,25.35
2018-07-28T00:48:24.410Z,25.27
2018-07-28T00:49:33.276Z,25.39
2018-07-28T00:50:42.423Z,25.24
2018-07-28T00:51:51.570Z,25.27
2018-07-28T00:53:00.436Z,25.3
2018-07-28T00:54:09.303Z,25.27
2018-07-28T00:55:18.567Z,25.24
2018-07-28T00:56:27.432Z,25.24
2018-07-28T00:57:36.299Z,25.21
2018-07-28T00:58:45.162Z,25.23
2018-07-28T00:59:54.028Z,25.23
2018-07-28T01:01:03.042Z,25.21
2018-07-28T01:02:11.907Z,25.28
2018-07-28T01:03:20.773Z,25.1
2018-07-28T01:04:29.639Z,25.13
2018-07-28T01:05:38.781Z,25.1
2018-07-28T01:06:47.927Z,25.02
2018-07-28T01:07:56.790Z,25.03
2018-07-28T01:09:05.656Z,25.06
2018-07-28T01:10:14.521Z,24.99
2018-07-28T01:11:23.387Z,24.87
2018-07-28T01:12:32.348Z,24.99
2018-07-28T01:13:41.213Z,25.02
2018-07-28T01:14:50.080Z,24.84
2018-07-28T01:15:59.220Z,24.91
2018-07-28T01:17:08.084Z,24.91
2018-07-28T01:18:17.098Z,24.87
2018-07-28T01:19:25.961Z,24.88
2018-07-28T01:20:34.826Z,24.83
2018-07-28T01:21:43.691Z,24.85
2018-07-28T01:22:52.558Z,24.8
2018-07-28T01:24:01.422Z,24.8
2018-07-28T01:25:10.287Z,24.8
2018-07-28T01:26:19.152Z,24.8
2018-07-28T01:27:28.017Z,24.9
2018-07-28T01:28:36.884Z,24.85
2018-07-28T01:29:45.847Z,24.87
2018-07-28T01:30:54.713Z,24.8
2018-07-28T01:32:03.579Z,24.76
2018-07-28T01:33:12.441Z,24.81
2018-07-28T01:34:21.584Z,24.76
2018-07-28T01:35:30.600Z,24.71
2018-07-28T01:36:39.750Z,24.78
2018-07-28T01:37:48.887Z,24.76
2018-07-28T01:38:57.750Z,24.68
2018-07-28T01:40:06.903Z,24.67
2018-07-28T01:41:15.769Z,24.67
2018-07-28T01:42:24.912Z,24.61
2018-07-28T01:43:33.775Z,24.6
2018-07-28T01:44:42.636Z,24.53
2018-07-28T01:45:51.500Z,24.53
2018-07-28T01:47:00.911Z,24.53
2018-07-28T01:48:10.058Z,24.55
2018-07-28T01:49:19.346Z,24.52
2018-07-28T01:50:28.173Z,24.47
2018-07-28T01:51:37.320Z,24.6
2018-07-28T01:52:46.184Z,24.53
2018-07-28T01:53:55.323Z,24.49
2018-07-28T01:55:04.484Z,24.49
2018-07-28T01:56:13.345Z,24.53
2018-07-28T01:57:22.210Z,24.53
2018-07-28T01:58:31.455Z,24.47
2018-07-28T01:59:40.369Z,24.5
2018-07-28T02:00:49.515Z,24.47
2018-07-28T02:01:58.376Z,24.45
2018-07-28T02:03:07.519Z,24.47
2018-07-28T02:04:16.741Z,24.45
2018-07-28T02:05:25.886Z,24.42
2018-07-28T02:06:34.750Z,24.37
2018-07-28T02:07:43.611Z,24.4
2018-07-28T02:08:52.749Z,24.42
2018-07-28T02:10:01.898Z,24.32
2018-07-28T02:11:11.039Z,24.39
2018-07-28T02:12:20.458Z,24.25
2018-07-28T02:13:29.601Z,24.31
2018-07-28T02:14:38.737Z,24.25
2018-07-28T02:15:47.604Z,24.25
2018-07-28T02:16:56.469Z,24.2
2018-07-28T02:18:05.334Z,24.18
2018-07-28T02:19:14.206Z,24.13
2018-07-28T02:20:23.063Z,24.05
2018-07-28T02:21:32.026Z,24.12
2018-07-28T02:22:40.893Z,24.05
2018-07-28T02:23:49.760Z,24.13
2018-07-28T02:24:58.897Z,24.06
2018-07-28T02:26:07.762Z,24.02
2018-07-28T02:27:16.776Z,24.06
2018-07-28T02:28:25.637Z,23.98
2018-07-28T02:29:34.503Z,23.98
2018-07-28T02:30:43.373Z,24.02
2018-07-28T02:31:52.247Z,23.98
2018-07-28T02:33:01.216Z,24.05
2018-07-28T02:34:10.078Z,24.08
2018-07-28T02:35:19.495Z,24.06
2018-07-28T02:36:28.360Z,24.03
2018-07-28T02:37:38.056Z,23.97
2018-07-28T02:38:47.200Z,23.98
2018-07-28T02:39:56.063Z,23.98
2018-07-28T02:41:04.925Z,24.05
2018-07-28T02:42:14.339Z,23.94
2018-07-28T02:43:23.493Z,23.91
2018-07-28T02:44:32.784Z,23.95
2018-07-28T02:45:41.929Z,23.84
2018-07-28T02:46:51.074Z,23.94
2018-07-28T02:47:59.938Z,23.97
2018-07-28T02:49:08.804Z,23.93
2018-07-28T02:50:18.110Z,23.91
2018-07-28T02:51:26.978Z,23.76
2018-07-28T02:52:36.119Z,23.85
2018-07-28T02:53:45.270Z,23.8
2018-07-28T02:54:54.136Z,23.78
2018-07-28T02:56:03.148Z,23.73
2018-07-28T02:57:12.013Z,23.7
2018-07-28T02:58:21.433Z,23.76
2018-07-28T02:59:30.314Z,23.66
2018-07-28T03:00:39.165Z,23.7
2018-07-28T03:01:48.069Z,23.65
2018-07-28T03:02:57.172Z,23.66
2018-07-28T03:04:06.038Z,23.63
2018-07-28T03:05:14.901Z,23.65
2018-07-28T03:06:24.042Z,23.65
2018-07-28T03:07:33.621Z,23.66
2018-07-28T03:08:42.487Z,23.7
2018-07-28T03:09:51.355Z,23.65
2018-07-28T03:11:00.227Z,23.57
2018-07-28T03:12:09.092Z,23.61
2018-07-28T03:13:18.306Z,23.66
2018-07-28T03:14:27.182Z,23.53
2018-07-28T03:15:36.043Z,23.53
2018-07-28T03:16:45.196Z,23.58
2018-07-28T03:17:54.061Z,23.6
2018-07-28T03:19:03.478Z,23.7
2018-07-28T03:20:12.897Z,23.66
2018-07-28T03:21:22.045Z,23.57
2018-07-28T03:22:31.192Z,23.53
2018-07-28T03:23:40.335Z,23.53
2018-07-28T03:24:49.586Z,23.6
2018-07-28T03:25:58.666Z,23.6
2018-07-28T03:27:07.804Z,23.47
2018-07-28T03:28:16.946Z,23.58
2018-07-28T03:29:26.095Z,23.63
2018-07-28T03:30:35.664Z,23.6
2018-07-28T03:31:45.089Z,23.58
2018-07-28T03:32:54.231Z,23.55
2018-07-28T03:34:03.096Z,23.47
2018-07-28T03:35:11.960Z,23.47
2018-07-28T03:36:21.174Z,23.47
2018-07-28T03:37:30.039Z,23.42
2018-07-28T03:38:38.901Z,23.4
2018-07-28T03:39:47.762Z,23.32
2018-07-28T03:40:57.173Z,23.33
2018-07-28T03:42:06.393Z,23.36
2018-07-28T03:43:15.255Z,23.35
2018-07-28T03:44:24.116Z,23.32
2018-07-28T03:45:33.256Z,23.36
2018-07-28T03:46:42.127Z,23.39
2018-07-28T03:47:51.412Z,23.42
2018-07-28T03:49:00.279Z,23.38
2018-07-28T03:50:09.151Z,23.35
2018-07-28T03:51:18.012Z,23.36
2018-07-28T03:52:26.879Z,23.23
2018-07-28T03:53:35.745Z,23.25
2018-07-28T03:54:44.884Z,23.27
2018-07-28T03:55:53.763Z,23.19
2018-07-28T03:57:02.607Z,23.32
2018-07-28T03:58:12.023Z,23.25
2018-07-28T03:59:20.887Z,23.2
2018-07-28T04:00:29.752Z,23.19
2018-07-28T04:01:39.178Z,23.2
2018-07-28T04:02:48.042Z,23.27
2018-07-28T04:03:56.901Z,23.2
2018-07-28T04:05:06.191Z,23.32
2018-07-28T04:06:15.055Z,23.23
2018-07-28T04:07:23.917Z,23.32
2018-07-28T04:08:32.779Z,23.22
2018-07-28T04:09:41.924Z,23.22
2018-07-28T04:10:51.144Z,23.31
2018-07-28T04:12:00.010Z,23.22
2018-07-28T04:13:08.872Z,23.22
2018-07-28T04:14:18.039Z,23.23
2018-07-28T04:15:26.878Z,23.15
2018-07-28T04:16:35.839Z,23.22
2018-07-28T04:17:44.702Z,23.22
2018-07-28T04:18:53.603Z,23.2
2018-07-28T04:20:02.467Z,23.23
2018-07-28T04:21:11.331Z,23.31
2018-07-28T04:22:20.194Z,23.27
2018-07-28T04:23:29.622Z,23.23
2018-07-28T04:24:38.764Z,23.23
2018-07-28T04:25:47.626Z,23.27
2018-07-28T04:26:56.492Z,23.25
2018-07-28T04:28:05.707Z,23.19
2018-07-28T04:29:14.573Z,23.31
2018-07-28T04:30:23.997Z,23.32
2018-07-28T04:31:32.859Z,23.38
2018-07-28T04:32:41.724Z,23.36
2018-07-28T04:33:50.592Z,23.32
2018-07-28T04:35:00.015Z,23.28
2018-07-28T04:36:09.165Z,23.23
2018-07-28T04:37:18.034Z,23.27
2018-07-28T04:38:26.896Z,23.31
2018-07-28T04:39:35.763Z,23.27
2018-07-28T04:40:44.627Z,23.23
2018-07-28T04:41:53.491Z,23.2
2018-07-28T04:43:02.352Z,23.31
2018-07-28T04:44:11.217Z,23.31
2018-07-28T04:45:20.084Z,23.36
2018-07-28T04:46:28.950Z,23.39
2018-07-28T04:47:37.816Z,23.42
2018-07-28T04:48:46.682Z,23.33
2018-07-28T04:49:55.553Z,23.33
2018-07-28T04:51:04.699Z,23.42
2018-07-28T04:52:13.842Z,23.39
2018-07-28T04:53:22.706Z,23.39
2018-07-28T04:54:31.568Z,23.39
2018-07-28T04:55:40.433Z,23.46
2018-07-28T04:56:49.449Z,23.51
2018-07-28T04:57:58.309Z,23.5
2018-07-28T04:59:07.448Z,23.48
2018-07-28T05:00:16.588Z,23.55
2018-07-28T05:01:25.455Z,23.6
2018-07-28T05:02:34.319Z,23.57
2018-07-28T05:03:43.459Z,23.57
2018-07-28T05:04:52.327Z,23.6
2018-07-28T05:06:01.742Z,23.6
2018-07-28T05:07:10.897Z,23.63
2018-07-28T05:08:20.038Z,23.54
2018-07-28T05:09:29.190Z,23.69
2018-07-28T05:10:38.057Z,23.65
2018-07-28T05:11:47.197Z,23.61
2018-07-28T05:12:56.061Z,23.7
2018-07-28T05:14:05.075Z,23.7
2018-07-28T05:15:14.218Z,23.73
2018-07-28T05:16:23.081Z,23.69
2018-07-28T05:17:32.218Z,23.7
2018-07-28T05:18:41.358Z,23.73
2018-07-28T05:19:50.372Z,23.76
2018-07-28T05:20:59.232Z,23.76
2018-07-28T05:22:08.382Z,23.75
2018-07-28T05:23:17.246Z,23.73
2018-07-28T05:24:26.390Z,23.85
2018-07-28T05:25:35.256Z,23.85
2018-07-28T05:26:44.120Z,23.85
2018-07-28T05:27:52.983Z,23.75
2018-07-28T05:29:01.847Z,23.87
2018-07-28T05:30:10.715Z,23.84
2018-07-28T05:31:19.731Z,23.87
2018-07-28T05:32:28.869Z,23.93
2018-07-28T05:33:38.024Z,23.93
2018-07-28T05:34:46.887Z,23.98
2018-07-28T05:35:56.029Z,23.98
2018-07-28T05:37:05.091Z,23.97
2018-07-28T05:38:14.674Z,23.9
2018-07-28T05:39:23.537Z,23.95
2018-07-28T05:40:32.405Z,23.95
2018-07-28T05:41:41.541Z,24.02
2018-07-28T05:42:50.406Z,23.97
2018-07-28T05:43:59.273Z,23.94
2018-07-28T05:45:08.423Z,23.94
2018-07-28T05:46:17.286Z,23.94
2018-07-28T05:47:26.151Z,24.03
2018-07-28T05:48:35.446Z,24.09
2018-07-28T05:49:44.311Z,24
2018-07-28T05:50:53.174Z,24.12
2018-07-28T05:52:02.049Z,24
2018-07-28T05:53:10.903Z,24.05
2018-07-28T05:54:20.047Z,24.03
2018-07-28T05:55:29.187Z,24.06
2018-07-28T05:56:38.051Z,24.06
2018-07-28T05:57:46.914Z,23.97
2018-07-28T05:58:56.055Z,24.02
2018-07-28T06:00:05.072Z,24.06
2018-07-28T06:01:13.936Z,24.08
2018-07-28T06:02:22.823Z,24.03
2018-07-28T06:03:32.081Z,24
2018-07-28T06:04:40.945Z,24.06
2018-07-28T06:05:49.957Z,24.09
2018-07-28T06:06:58.828Z,24.2
2018-07-28T06:08:07.687Z,24.16
2018-07-28T06:09:16.551Z,24.18
2018-07-28T06:10:25.689Z,24.21
2018-07-28T06:11:34.549Z,24.28
2018-07-28T06:12:43.412Z,24.39
2018-07-28T06:13:52.274Z,24.3
2018-07-28T06:15:01.136Z,24.47
2018-07-28T06:16:10.007Z,24.43
2018-07-28T06:17:19.423Z,24.47
2018-07-28T06:18:28.286Z,24.57
2018-07-28T06:19:37.149Z,24.6
2018-07-28T06:20:46.319Z,24.62
2018-07-28T06:21:55.189Z,24.65
2018-07-28T06:23:04.054Z,24.77
2018-07-28T06:24:13.478Z,24.71
2018-07-28T06:25:22.634Z,24.77
2018-07-28T06:26:32.088Z,24.83
2018-07-28T06:27:40.950Z,24.81
2018-07-28T06:28:49.965Z,24.88
2018-07-28T06:29:58.829Z,24.9
2018-07-28T06:31:07.692Z,24.83
2018-07-28T06:32:16.557Z,24.9
2018-07-28T06:33:25.427Z,24.91
2018-07-28T06:34:34.291Z,24.9
2018-07-28T06:35:43.429Z,24.9
2018-07-28T06:36:52.295Z,25
2018-07-28T06:38:01.164Z,25
2018-07-28T06:39:10.029Z,25.09
2018-07-28T06:40:18.895Z,25.18
2018-07-28T06:41:27.761Z,25.18
2018-07-28T06:42:37.458Z,25.24
2018-07-28T06:43:46.324Z,25.33
2018-07-28T06:44:55.188Z,25.27
2018-07-28T06:46:04.053Z,25.38
2018-07-28T06:47:12.926Z,25.43
2018-07-28T06:48:22.082Z,25.5
2018-07-28T06:49:30.945Z,25.5
2018-07-28T06:50:39.814Z,25.54
2018-07-28T06:51:48.837Z,25.67
2018-07-28T06:52:57.982Z,25.69
2018-07-28T06:54:07.285Z,25.77
2018-07-28T06:55:16.397Z,25.85
2018-07-28T06:56:26.853Z,25.83
2018-07-28T06:57:37.204Z,25.79
2018-07-28T06:58:46.562Z,25.91
2018-07-28T06:59:56.150Z,25.98
2018-07-28T07:01:05.295Z,26.06
2018-07-28T07:02:14.315Z,26.12
2018-07-28T07:03:23.353Z,26.2
2018-07-28T07:04:32.222Z,26.3
2018-07-28T07:05:41.087Z,26.26
2018-07-28T07:06:49.953Z,26.26
2018-07-28T07:07:58.824Z,26.17
2018-07-28T07:09:07.696Z,26.26
2018-07-28T07:10:16.562Z,26.28
2018-07-28T07:11:25.428Z,26.23
2018-07-28T07:12:34.569Z,26.26
2018-07-28T07:13:43.434Z,26.26
2018-07-28T07:14:52.449Z,26.28
2018-07-28T07:16:01.596Z,26.25
2018-07-28T07:17:10.472Z,26.25
2018-07-28T07:18:19.343Z,26.23
2018-07-28T07:19:28.211Z,26.25
2018-07-28T07:20:37.356Z,26.36
2018-07-28T07:21:46.222Z,26.23
2018-07-28T07:22:55.091Z,26.39
2018-07-28T07:24:03.958Z,26.4
2018-07-28T07:25:13.107Z,26.4
2018-07-28T07:26:21.972Z,26.39
2018-07-28T07:27:30.845Z,26.35
2018-07-28T07:28:39.986Z,26.33
2018-07-28T07:29:48.852Z,26.36
2018-07-28T07:30:57.720Z,26.32
2018-07-28T07:32:07.021Z,26.33
2018-07-28T07:33:15.885Z,26.35
2018-07-28T07:34:24.759Z,26.32
2018-07-28T07:35:33.619Z,26.36
2018-07-28T07:36:42.486Z,26.37
2018-07-28T07:37:51.356Z,26.29
2018-07-28T07:39:00.220Z,26.36
2018-07-28T07:40:09.367Z,26.36
2018-07-28T07:41:18.238Z,26.37
2018-07-28T07:42:27.706Z,26.39
2018-07-28T07:43:37.212Z,26.33
2018-07-28T07:44:46.079Z,26.33
2018-07-28T07:45:54.951Z,26.33
2018-07-28T07:47:04.095Z,26.44
2018-07-28T07:48:13.240Z,26.3
2018-07-28T07:49:22.207Z,26.4
2018-07-28T07:50:31.078Z,26.3
2018-07-28T07:51:39.937Z,26.47
2018-07-28T07:52:48.806Z,26.47
2018-07-28T07:53:57.679Z,26.4
2018-07-28T07:55:07.510Z,26.37
2018-07-28T07:56:16.374Z,26.43
2018-07-28T07:57:25.242Z,26.47
2018-07-28T07:58:34.107Z,26.5
2018-07-28T07:59:42.978Z,26.5
2018-07-28T08:00:51.994Z,26.48
2018-07-28T08:02:00.863Z,26.51
2018-07-28T08:03:10.005Z,26.54
2018-07-28T08:04:18.871Z,26.65
2018-07-28T08:05:28.014Z,26.67
2018-07-28T08:06:37.231Z,26.57
2018-07-28T08:07:46.375Z,26.67
2018-07-28T08:08:55.518Z,26.67
2018-07-28T08:10:04.665Z,26.7
2018-07-28T08:11:13.812Z,26.76
2018-07-28T08:12:22.678Z,26.82
2018-07-28T08:13:31.547Z,26.85
2018-07-28T08:14:40.415Z,26.8
2018-07-28T08:15:49.556Z,26.77
2018-07-28T08:16:58.431Z,26.91
2018-07-28T08:18:07.450Z,26.87
2018-07-28T08:19:16.318Z,26.92
2018-07-28T08:20:25.459Z,26.87
2018-07-28T08:21:34.327Z,26.94
2018-07-28T08:22:43.264Z,26.97
2018-07-28T08:23:52.408Z,26.89
2018-07-28T08:25:01.282Z,26.95
2018-07-28T08:26:10.149Z,26.91
2018-07-28T08:27:19.047Z,26.89
2018-07-28T08:28:28.356Z,26.95
2018-07-28T08:29:37.225Z,26.91
2018-07-28T08:30:46.092Z,26.92
2018-07-28T08:31:54.959Z,26.91
2018-07-28T08:33:03.832Z,27.03
2018-07-28T08:34:12.707Z,26.99
2018-07-28T08:35:21.581Z,27.17
2018-07-28T08:36:30.447Z,27.21
2018-07-28T08:37:39.314Z,27.18
2018-07-28T08:38:48.506Z,27.28
2018-07-28T08:39:57.712Z,27.29
2018-07-28T08:41:06.807Z,27.43
2018-07-28T08:42:15.725Z,27.49
2018-07-28T08:43:24.623Z,27.59
2018-07-28T08:44:33.488Z,27.7
2018-07-28T08:45:42.689Z,27.79
2018-07-28T08:46:51.833Z,27.9
2018-07-28T08:48:00.700Z,27.92
2018-07-28T08:49:10.763Z,27.93
2018-07-28T08:50:20.163Z,27.82
2018-07-28T08:51:29.047Z,27.85
2018-07-28T08:52:38.211Z,27.93
2018-07-28T08:53:47.082Z,27.92
2018-07-28T08:54:55.949Z,27.88
2018-07-28T08:56:04.815Z,27.84
2018-07-28T08:57:13.696Z,27.77
2018-07-28T08:58:22.849Z,27.72
2018-07-28T08:59:31.716Z,27.81
2018-07-28T09:00:40.736Z,27.87
2018-07-28T09:01:49.604Z,27.87
2018-07-28T09:02:58.472Z,27.93
2018-07-28T09:04:07.343Z,27.92
2018-07-28T09:05:16.211Z,27.88
2018-07-28T09:06:25.079Z,27.92
2018-07-28T09:07:33.964Z,27.88
2018-07-28T09:08:43.170Z,27.92
2018-07-28T09:09:52.039Z,27.87
2018-07-28T09:11:00.906Z,27.93
2018-07-28T09:12:10.206Z,27.9
2018-07-28T09:13:19.104Z,28.04
2018-07-28T09:14:27.973Z,28.06
2018-07-28T09:15:36.848Z,28.19
2018-07-28T09:16:45.715Z,28.34
2018-07-28T09:17:54.602Z,28.41
2018-07-28T09:19:04.131Z,28.4
2018-07-28T09:20:13.006Z,28.54
2018-07-28T09:21:21.885Z,28.61
2018-07-28T09:22:30.810Z,28.71
2018-07-28T09:23:40.204Z,28.77
2018-07-28T09:24:48.995Z,28.88
2018-07-28T09:25:58.125Z,28.76
2018-07-28T09:27:07.036Z,28.8
2018-07-28T09:28:16.179Z,28.81
2018-07-28T09:29:25.071Z,28.89
2018-07-28T09:30:34.222Z,28.92
2018-07-28T09:31:43.459Z,29.05
2018-07-28T09:32:52.335Z,29.11
2018-07-28T09:34:01.206Z,29.23
2018-07-28T09:35:10.432Z,29.18
2018-07-28T09:36:19.303Z,29.27
2018-07-28T09:37:28.170Z,29.34
2018-07-28T09:38:37.629Z,29.41
2018-07-28T09:39:46.498Z,29.52
2018-07-28T09:40:55.369Z,29.46
2018-07-28T09:42:04.539Z,29.63
2018-07-28T09:43:13.407Z,29.63
2018-07-28T09:44:22.277Z,29.76
2018-07-28T09:45:31.147Z,29.86
2018-07-28T09:46:40.457Z,29.92
2018-07-28T09:47:49.335Z,29.89
2018-07-28T09:48:58.208Z,30.08
2018-07-28T09:50:07.081Z,30.13
2018-07-28T09:51:15.951Z,30.17
2018-07-28T09:52:25.119Z,30.19
2018-07-28T09:53:33.992Z,30.2
2018-07-28T09:54:42.861Z,30.32
2018-07-28T09:55:51.727Z,30.43
2018-07-28T09:57:00.598Z,30.55
2018-07-28T09:58:10.024Z,30.55
2018-07-28T09:59:18.920Z,30.6
2018-07-28T10:00:27.792Z,30.6
2018-07-28T10:01:36.669Z,30.6
2018-07-28T10:02:46.101Z,30.7
2018-07-28T10:03:55.248Z,30.76
2018-07-28T10:05:04.270Z,30.82
2018-07-28T10:06:13.222Z,30.83
2018-07-28T10:07:22.397Z,30.82
2018-07-28T10:08:31.553Z,30.75
2018-07-28T10:09:40.577Z,30.58
2018-07-28T10:10:50.066Z,30.54
2018-07-28T10:11:59.211Z,30.55
2018-07-28T10:13:08.120Z,30.53
2018-07-28T10:14:17.027Z,30.57
2018-07-28T10:15:26.034Z,30.45
2018-07-28T10:16:35.333Z,30.38
2018-07-28T10:17:44.206Z,30.35
2018-07-28T10:18:53.170Z,30.37
2018-07-28T10:20:02.082Z,30.34
2018-07-28T10:21:11.080Z,30.37
2018-07-28T10:22:20.041Z,30.29
2018-07-28T10:23:28.990Z,30.35
2018-07-28T10:24:38.274Z,30.39
2018-07-28T10:25:47.204Z,30.43
2018-07-28T10:26:56.150Z,30.34
2018-07-28T10:28:05.333Z,30.34
2018-07-28T10:29:14.227Z,30.37
2018-07-28T10:30:23.204Z,30.35
2018-07-28T10:31:32.405Z,30.35
2018-07-28T10:32:41.900Z,30.37
2018-07-28T10:33:50.817Z,30.34
2018-07-28T10:34:59.748Z,30.37
2018-07-28T10:36:08.890Z,30.38
2018-07-28T10:37:19.459Z,30.43
2018-07-28T10:38:29.122Z,30.38
2018-07-28T10:39:38.094Z,30.45
2018-07-28T10:40:46.988Z,30.46
2018-07-28T10:41:56.244Z,30.43
2018-07-28T10:43:05.159Z,30.42
2018-07-28T10:44:14.148Z,30.43
2018-07-28T10:45:23.041Z,30.39
2018-07-28T10:46:31.977Z,30.47
2018-07-28T10:47:40.847Z,30.49
2018-07-28T10:48:49.761Z,30.35
2018-07-28T10:49:58.928Z,30.38
2018-07-28T10:51:07.864Z,30.47
2018-07-28T10:52:16.753Z,30.43
2018-07-28T10:53:25.681Z,30.46
2018-07-28T10:54:34.568Z,30.51
2018-07-28T10:55:44.133Z,30.69
2018-07-28T10:56:53.029Z,30.92
2018-07-28T10:58:02.216Z,31.07
2018-07-28T10:59:11.105Z,31.12
2018-07-28T11:00:20.052Z,31.28
2018-07-28T11:01:29.577Z,31.34
2018-07-28T11:02:38.464Z,31.36
2018-07-28T11:03:47.373Z,31.35
2018-07-28T11:04:56.285Z,31.36
2018-07-28T11:06:05.181Z,31.44
2018-07-28T11:07:14.229Z,31.43
2018-07-28T11:08:23.116Z,31.44
2018-07-28T11:09:32.048Z,31.41
2018-07-28T11:10:40.917Z,31.5
2018-07-28T11:11:50.117Z,31.48
2018-07-28T11:12:59.009Z,31.66
2018-07-28T11:14:08.200Z,31.75
2018-07-28T11:15:17.081Z,31.68
2018-07-28T11:16:25.995Z,31.81
2018-07-28T11:17:34.883Z,31.72
2018-07-28T11:18:43.959Z,31.69
2018-07-28T11:19:53.248Z,31.72
2018-07-28T11:21:02.156Z,31.7
2018-07-28T11:22:11.030Z,31.81
2018-07-28T11:23:19.970Z,31.76
2018-07-28T11:24:28.893Z,31.85
2018-07-28T11:25:38.084Z,32.1
2018-07-28T11:26:46.960Z,32.07
2018-07-28T11:27:56.152Z,32.23
2018-07-28T11:29:05.024Z,32.29
2018-07-28T11:30:14.087Z,32.43
2018-07-28T11:31:22.963Z,32.51
2018-07-28T11:32:31.900Z,32.48
2018-07-28T11:33:41.371Z,32.62
2018-07-28T11:34:50.282Z,32.65
2018-07-28T11:35:59.570Z,32.81
2018-07-28T11:37:08.771Z,32.75
2018-07-28T11:38:17.967Z,32.67
2018-07-28T11:39:26.859Z,32.59
2018-07-28T11:40:35.777Z,32.59
2018-07-28T11:41:45.026Z,32.47
2018-07-28T11:42:53.970Z,32.41
2018-07-28T11:44:02.868Z,32.43
2018-07-28T11:45:11.848Z,32.43
2018-07-28T11:46:20.777Z,32.4
2018-07-28T11:47:29.994Z,32.32
2018-07-28T11:48:38.915Z,32.38
2018-07-28T11:49:47.919Z,32.28
2018-07-28T11:50:56.823Z,32.21
2018-07-28T11:52:06.052Z,32.11
2018-07-28T11:53:14.946Z,32.14
2018-07-28T11:54:23.907Z,31.95
2018-07-28T11:55:33.075Z,31.93
2018-07-28T11:56:42.330Z,31.78
2018-07-28T11:57:51.508Z,31.66
2018-07-28T11:59:00.882Z,31.62
2018-07-28T12:00:09.819Z,31.47
2018-07-28T12:01:18.722Z,31.19
2018-07-28T12:02:27.620Z,31.01
2018-07-28T12:03:36.875Z,30.97
2018-07-28T12:04:45.827Z,30.91
2018-07-28T12:05:55.024Z,30.88
2018-07-28T12:07:04.021Z,30.49
2018-07-28T12:08:12.988Z,29.98
2018-07-28T12:09:21.941Z,29.45
2018-07-28T12:10:30.862Z,29.05
2018-07-28T12:11:39.806Z,28.18
2018-07-28T12:12:49.053Z,27.1
2018-07-28T12:13:57.954Z,25.47
2018-07-28T12:15:06.870Z,24.31
2018-07-28T12:16:15.828Z,23.97
2018-07-28T12:17:24.797Z,23.85
2018-07-28T12:18:34.080Z,23.8
2018-07-28T12:19:43.363Z,-40
2018-07-28T12:20:52.704Z,-40
2018-07-28T12:22:01.573Z,-40
2018-07-28T12:23:10.615Z,-40
2018-07-28T12:24:19.496Z,-40
2018-07-28T12:25:28.520Z,-40
2018-07-28T12:26:37.398Z,-40
2018-07-28T12:27:46.343Z,-40
2018-07-28T12:28:55.520Z,-40
2018-07-28T12:30:04.448Z,-40
2018-07-28T12:31:13.312Z,-40
2018-07-28T12:32:22.211Z,-40
2018-07-28T12:33:31.248Z,-40
2018-07-28T12:34:40.250Z,-40
2018-07-28T12:35:49.598Z,-40
2018-07-28T12:36:58.509Z,23.53
2018-07-28T12:38:07.669Z,23.75
2018-07-28T12:39:16.932Z,23.84
2018-07-28T12:40:25.827Z,23.63
2018-07-28T12:41:34.992Z,23.93
2018-07-28T12:42:43.877Z,24.18
2018-07-28T12:43:52.789Z,23.87
2018-07-28T12:45:01.823Z,24.22
2018-07-28T12:46:10.725Z,24.22
2018-07-28T12:47:19.592Z,24.34
2018-07-28T12:48:28.524Z,24.18
2018-07-28T12:49:37.488Z,24.08
2018-07-28T12:50:46.393Z,24.27
2018-07-28T12:51:55.289Z,24.15
2018-07-28T12:53:04.819Z,24.12
2018-07-28T12:54:13.690Z,24.08
2018-07-28T12:55:23.152Z,24.08
2018-07-28T12:56:32.484Z,23.98
2018-07-28T12:57:41.376Z,23.98
2018-07-28T12:58:50.586Z,23.9
2018-07-28T12:59:59.499Z,24.91
2018-07-28T13:01:08.518Z,24.76
2018-07-28T13:02:17.662Z,24.76
2018-07-28T13:03:26.598Z,24.58
2018-07-28T13:04:35.516Z,24.77
2018-07-28T13:05:44.472Z,25.02
2018-07-28T13:06:53.369Z,25.17
2018-07-28T13:08:02.301Z,25.28
2018-07-28T13:09:11.219Z,25.25
2018-07-28T13:10:20.128Z,25.3
2018-07-28T13:11:29.102Z,25.38
2018-07-28T13:12:38.319Z,25.51
2018-07-28T13:13:47.577Z,25.87
2018-07-28T13:14:56.574Z,26.06
2018-07-28T13:16:05.526Z,26.01
2018-07-28T13:17:14.969Z,26.05
2018-07-28T13:18:24.000Z,26.28
2018-07-28T13:19:33.067Z,26.3
2018-07-28T13:20:41.979Z,26.47
2018-07-28T13:21:50.982Z,26.63
2018-07-28T13:22:59.858Z,26.55
2018-07-28T13:24:08.843Z,26.52
2018-07-28T13:25:17.813Z,26.33
2018-07-28T13:26:26.763Z,26.39
2018-07-28T13:27:35.668Z,26.28
2018-07-28T13:28:44.695Z,26.26
2018-07-28T13:29:54.039Z,26.47
2018-07-28T13:31:03.290Z,26.45
2018-07-28T13:32:12.183Z,26.28
2018-07-28T13:33:21.393Z,26.21
2018-07-28T13:34:30.286Z,26.18
2018-07-28T13:35:39.476Z,26.05
2018-07-28T13:36:48.383Z,25.98
2018-07-28T13:37:57.302Z,25.82
2018-07-28T13:39:06.186Z,25.87
2018-07-28T13:40:15.100Z,25.75
2018-07-28T13:41:23.972Z,25.85
2018-07-28T13:42:33.550Z,25.79
2018-07-28T13:43:42.450Z,25.76
2018-07-28T13:44:51.679Z,25.9
2018-07-28T13:46:00.582Z,26.06
2018-07-28T13:47:09.769Z,26.01
2018-07-28T13:48:19.594Z,26.01
2018-07-28T13:49:28.505Z,25.85
2018-07-28T13:50:37.424Z,25.92
2018-07-28T13:51:46.319Z,26.02
2018-07-28T13:52:55.295Z,25.85
2018-07-28T13:54:04.227Z,25.9
2018-07-28T13:55:13.094Z,25.91
2018-07-28T13:56:21.960Z,25.77
2018-07-28T13:57:30.828Z,25.83
2018-07-28T13:58:39.694Z,25.94
2018-07-28T13:59:48.561Z,25.99
2018-07-28T14:00:57.429Z,25.97
2018-07-28T14:02:06.297Z,25.87
2018-07-28T14:03:15.489Z,25.82
2018-07-28T14:04:24.641Z,25.92
2018-07-28T14:05:33.937Z,26.06
2018-07-28T14:06:42.802Z,25.9
2018-07-28T14:07:51.945Z,25.92
2018-07-28T14:09:00.811Z,25.91
2018-07-28T14:10:09.677Z,25.99
2018-07-28T14:11:18.549Z,26.02
2018-07-28T14:12:27.414Z,26.01
2018-07-28T14:13:36.275Z,25.98
2018-07-28T14:14:45.171Z,25.88
2018-07-28T14:15:54.590Z,25.9
2018-07-28T14:17:03.605Z,25.88
2018-07-28T14:18:13.004Z,25.9
2018-07-28T14:19:22.070Z,25.97
2018-07-28T14:20:31.218Z,26.07
2018-07-28T14:21:40.090Z,26.09
2018-07-28T14:22:49.231Z,26.1
2018-07-28T14:23:58.096Z,26.12
2018-07-28T14:25:06.966Z,26.12
2018-07-28T14:26:15.831Z,26.21
2018-07-28T14:27:25.050Z,26.2
2018-07-28T14:28:33.845Z,26.17
2018-07-28T14:29:42.987Z,26.2
2018-07-28T14:30:51.853Z,26.28
2018-07-28T14:32:01.272Z,26.36
2018-07-28T14:33:10.419Z,26.35
2018-07-28T14:34:19.380Z,26.33
2018-07-28T14:35:28.251Z,26.43
2018-07-28T14:36:37.119Z,26.47
2018-07-28T14:37:45.990Z,26.52
2018-07-28T14:38:54.856Z,26.47
2018-07-28T14:40:04.079Z,26.6
2018-07-28T14:41:13.220Z,26.67
2018-07-28T14:42:22.087Z,26.62
2018-07-28T14:43:30.954Z,26.72
2018-07-28T14:44:40.374Z,26.89
2018-07-28T14:45:49.268Z,26.77
2018-07-28T14:46:58.107Z,26.92
2018-07-28T14:48:07.258Z,27.06
2018-07-28T14:49:16.127Z,27
2018-07-28T14:50:25.279Z,27.14
2018-07-28T14:51:34.148Z,27.17
2018-07-28T14:52:43.290Z,27.1
2018-07-28T14:53:52.157Z,27.07